Data for 01/19/2010

Time Sea-Level Adjusted Pressure Absolute Pressure Temperature Relative Humidity Dew Point   
(mb) (inHg) (mb) (inHg) (C) (F) (%) (C) (F)
00:05 1003 29.62 833 24.6 -0.4 31.4 61 -7.1 19.3
00:10 1003 29.62 833 24.6 -0.4 31.3 61 -7.1 19.2
00:15 1003 29.62 833 24.6 -0.1 31.7 59 -7.2 19
00:20 1003 29.62 832 24.57 0.1 32.2 59 -6.9 19.6
00:25 1003 29.62 832 24.57 0 32 59 -7 19.3
00:30 1003 29.62 832 24.57 0.1 32.2 59 -7 19.3
00:35 1003 29.62 832 24.57 0.3 32.6 57 -7.2 19.1
00:40 1003 29.62 832 24.57 0.4 32.6 58 -6.9 19.6
00:45 1003 29.62 832 24.57 0.2 32.3 58 -7.2 19
00:50 1003 29.62 832 24.57 0.2 32.3 58 -7.1 19.2
00:55 1003 29.62 832 24.57 0.3 32.5 59 -6.9 19.5
01:00 1003 29.62 832 24.57 0.1 32.2 59 -7.1 19.2
01:05 1002 29.59 832 24.57 0 32.1 59 -7 19.4
01:10 1003 29.62 832 24.57 -0.2 31.6 59 -7.4 18.8
01:15 1002 29.59 832 24.57 -0.1 31.7 60 -7 19.3
01:20 1002 29.59 832 24.57 -0.3 31.5 60 -7.2 19
01:25 1002 29.59 832 24.57 -0.3 31.5 59 -7.4 18.6
01:30 1002 29.59 832 24.57 -0.2 31.7 59 -7.3 18.9
01:35 1002 29.59 832 24.57 -0.1 31.8 59 -7.2 19
01:40 1003 29.62 832 24.57 -0.4 31.4 61 -7 19.4
01:45 1002 29.59 832 24.57 -0.8 30.5 62 -7.3 18.9
01:50 1002 29.59 832 24.57 -0.2 31.6 58 -7.4 18.6
01:55 1002 29.59 831 24.54 0.4 32.8 56 -7.4 18.6
02:00 1002 29.59 832 24.57 0.7 33.3 57 -6.9 19.5
02:05 1002 29.59 831 24.54 0.3 32.5 58 -7 19.3
02:10 1002 29.59 831 24.54 -0.1 31.8 59 -7.2 19.1
02:15 1002 29.59 831 24.54 -0.1 31.9 59 -7.1 19.2
02:20 1002 29.59 831 24.54 -0.4 31.2 61 -7.1 19.2
02:25 1002 29.59 831 24.54 -0.8 30.6 62 -7.2 19.1
02:30 1002 29.59 831 24.54 -0.6 30.9 62 -7.1 19.3
02:35 1002 29.59 831 24.54 -0.9 30.4 62 -7.2 19
02:40 1002 29.59 831 24.54 -0.9 30.4 62 -7.2 19
02:45 1001 29.56 831 24.54 -0.9 30.4 62 -7.2 19
02:50 1001 29.56 831 24.54 -0.9 30.3 63 -7.2 19.1
02:55 1001 29.56 831 24.54 -1 30.2 62 -7.3 18.9
03:00 1001 29.56 831 24.54 -0.6 30.8 61 -7.2 19
03:05 1001 29.56 830 24.51 -0.4 31.4 60 -7.2 19.1
03:10 1001 29.56 830 24.51 -0.5 31.2 61 -7 19.3
03:15 1001 29.56 830 24.51 -0.6 30.9 61 -7.1 19.1
03:20 1001 29.56 830 24.51 -0.2 31.6 59 -7.2 19
03:25 1001 29.56 830 24.51 -0.1 31.7 60 -7 19.5
03:30 1001 29.56 830 24.51 -0.5 31.1 62 -7 19.4
03:35 1001 29.56 830 24.51 -0.9 30.4 63 -7.1 19.2
03:40 1001 29.56 830 24.51 -1 30.1 63 -7.1 19.2
03:45 1001 29.56 830 24.51 -0.5 31.2 60 -7.3 18.9
03:50 1001 29.56 830 24.51 -0.3 31.5 61 -6.9 19.6
03:55 1001 29.56 830 24.51 0.5 32.9 56 -7.4 18.8
04:00 1001 29.56 830 24.51 0.9 33.6 58 -6.6 20.2
04:05 1001 29.56 830 24.51 0.6 33.1 57 -6.9 19.6
04:10 1000 29.53 830 24.51 1.3 34.3 54 -7 19.4
04:15 1000 29.53 829 24.48 1.5 34.7 54 -6.7 19.9
04:20 1000 29.53 829 24.48 1.5 34.7 54 -6.8 19.8
04:25 1000 29.53 829 24.48 1.4 34.6 55 -6.8 19.8
04:30 1000 29.53 829 24.48 1.4 34.4 55 -6.7 19.9
04:35 1000 29.53 829 24.48 1.3 34.3 55 -6.8 19.7
04:40 1000 29.53 829 24.48 1.3 34.3 56 -6.7 20
04:45 1000 29.53 829 24.48 0.8 33.5 58 -6.6 20.1
04:50 1000 29.53 829 24.48 0.6 33.1 57 -6.9 19.5
04:55 1000 29.53 829 24.48 1.1 34 56 -6.8 19.8
05:00 1000 29.53 829 24.48 0.7 33.3 57 -6.7 19.9
05:05 1000 29.53 829 24.48 0.7 33.3 57 -6.8 19.8
05:10 1000 29.53 829 24.48 0.7 33.3 57 -6.9 19.5
05:15 1000 29.53 829 24.48 1.2 34.1 55 -6.8 19.8
05:20 1000 29.53 829 24.48 1.3 34.3 56 -6.6 20.1
05:25 1000 29.53 829 24.48 1.3 34.4 54 -7 19.4
05:30 1000 29.53 829 24.48 1.8 35.3 53 -6.7 19.9
05:35 1000 29.53 829 24.48 2.1 35.8 53 -6.6 20.2
05:40 1000 29.53 829 24.48 2 35.6 53 -6.5 20.3
05:45 1000 29.53 829 24.48 1.7 35.1 55 -6.4 20.4
05:50 1000 29.53 829 24.48 1.7 35 55 -6.5 20.3
05:55 1000 29.53 829 24.48 1.7 35 55 -6.5 20.4
06:00 1000 29.53 829 24.48 1.5 34.8 56 -6.4 20.5
06:05 1000 29.53 829 24.48 0.6 33 61 -6 21.2
06:10 1000 29.53 829 24.48 0.5 33 59 -6.7 20
06:15 1000 29.53 829 24.48 0.1 32.1 62 -6.4 20.5
06:20 1000 29.53 829 24.48 -0.1 31.9 61 -6.7 19.9
06:25 1000 29.53 829 24.48 -0.5 31.1 64 -6.5 20.4
06:30 1000 29.53 829 24.48 -0.8 30.5 67 -6.3 20.7
06:35 1000 29.53 829 24.48 -1.2 29.8 69 -6.3 20.7
06:40 1000 29.53 829 24.48 -1.6 29 70 -6.4 20.5
06:45 1000 29.53 829 24.48 -1.8 28.8 70 -6.6 20.2
06:50 1000 29.53 829 24.48 -1.7 29 70 -6.5 20.3
06:55 1000 29.53 829 24.48 -1.6 29 70 -6.4 20.5
07:00 1000 29.53 829 24.48 -1.8 28.7 70 -6.6 20.1
07:05 1000 29.53 829 24.48 -1.8 28.7 70 -6.5 20.2
07:10 1000 29.53 830 24.51 -1.7 28.9 70 -6.5 20.3
07:15 1000 29.53 830 24.51 -1.9 28.6 70 -6.6 20.1
07:20 1000 29.53 829 24.48 -1.7 29 70 -6.5 20.3
07:25 1000 29.53 829 24.48 -1.6 29.1 67 -6.9 19.6
07:30 1000 29.53 829 24.48 -0.9 30.3 65 -6.7 19.9
07:35 1000 29.53 829 24.48 -0.5 31.1 64 -6.4 20.5
07:40 1000 29.53 829 24.48 -1.1 30 67 -6.5 20.4
07:45 1000 29.53 829 24.48 -0.9 30.4 66 -6.5 20.4
07:50 1000 29.53 830 24.51 -0.9 30.3 64 -7 19.5
07:55 1000 29.53 830 24.51 -0.7 30.8 64 -6.7 20
08:00 1000 29.53 830 24.51 -0.3 31.4 62 -6.7 20
08:05 1001 29.56 830 24.51 -0.4 31.2 63 -6.5 20.3
08:10 1001 29.56 830 24.51 -0.7 30.7 65 -6.4 20.4
08:15 1001 29.56 830 24.51 -1.4 29.4 70 -6.3 20.7
08:20 1001 29.56 830 24.51 -1.2 29.8 66 -6.8 19.8
08:25 1001 29.56 830 24.51 0 32 63 -6.3 20.7
08:30 1001 29.56 830 24.51 -0.2 31.7 66 -5.7 21.7
08:35 1001 29.56 830 24.51 -0.5 31.1 65 -6.3 20.7
08:40 1001 29.56 830 24.51 -0.4 31.4 66 -5.9 21.4
08:45 1001 29.56 830 24.51 -0.3 31.5 65 -6.1 21
08:50 1001 29.56 830 24.51 -0.2 31.6 66 -5.9 21.4
08:55 1001 29.56 830 24.51 -0.1 31.9 66 -5.7 21.7
09:00 1001 29.56 830 24.51 -0.5 31.1 65 -6.3 20.7
09:05 1001 29.56 830 24.51 -0.1 31.7 67 -5.6 22
09:10 1001 29.56 830 24.51 -0.2 31.7 64 -6.1 20.9
09:15 1001 29.56 831 24.54 0 32 64 -6.1 21
09:20 1001 29.56 831 24.54 0 32.1 65 -5.9 21.5
09:25 1002 29.59 831 24.54 0.2 32.4 66 -5.5 22.1
09:30 1002 29.59 831 24.54 0.2 32.3 65 -5.7 21.8
09:35 1002 29.59 831 24.54 0.3 32.6 64 -5.7 21.8
09:40 1002 29.59 831 24.54 0.5 33 65 -5.2 22.6
09:45 1002 29.59 831 24.54 0.5 32.9 64 -5.4 22.2
09:50 1002 29.59 831 24.54 0.1 32.1 67 -5.4 22.4
09:55 1002 29.59 831 24.54 0.1 32.2 67 -5.3 22.4
10:00 1002 29.59 831 24.54 0.3 32.5 65 -5.6 21.9
10:05 1002 29.59 831 24.54 0.5 32.9 63 -5.8 21.6
10:10 1002 29.59 831 24.54 0.6 33.1 63 -5.8 21.6
10:15 1002 29.59 831 24.54 0.5 32.9 62 -5.9 21.3
10:20 1002 29.59 831 24.54 0.4 32.7 64 -5.6 21.9
10:25 1002 29.59 831 24.54 0.4 32.8 66 -5.3 22.5
10:30 1002 29.59 831 24.54 0.3 32.6 66 -5.3 22.5
10:35 1002 29.59 831 24.54 0.4 32.7 65 -5.4 22.3
10:40 1002 29.59 831 24.54 0.3 32.6 64 -5.8 21.6
10:45 1002 29.59 831 24.54 0.7 33.2 63 -5.5 22.1
10:50 1002 29.59 831 24.54 0.9 33.5 62 -5.5 22.1
10:55 1002 29.59 831 24.54 1.4 34.5 58 -6 21.2
11:00 1002 29.59 831 24.54 1.7 35.1 60 -5.2 22.7
11:05 1002 29.59 831 24.54 1.6 34.9 61 -5.1 22.8
11:10 1002 29.59 831 24.54 2 35.6 58 -5.5 22.1
11:15 1002 29.59 831 24.54 2.4 36.3 57 -5.2 22.6
11:20 1002 29.59 831 24.54 2.7 36.9 56 -5.1 22.9
11:25 1002 29.59 831 24.54 2.9 37.3 56 -5 23
11:30 1002 29.59 831 24.54 3.2 37.8 55 -5.1 22.9
11:35 1002 29.59 831 24.54 3.9 39 52 -5.2 22.7
11:40 1002 29.59 831 24.54 4.2 39.6 50 -5.2 22.7
11:45 1002 29.59 831 24.54 4.1 39.3 54 -4.4 24.1
11:50 1001 29.56 831 24.54 3.3 38 58 -4.1 24.6
11:55 1001 29.56 831 24.54 2.5 36.6 59 -4.7 23.5
12:00 1001 29.56 831 24.54 2.8 37.1 56 -5.1 22.8
12:05 1001 29.56 831 24.54 3.5 38.3 54 -5.1 22.9
12:10 1001 29.56 831 24.54 4.1 39.4 51 -5.2 22.6
12:15 1001 29.56 831 24.54 4.5 40.1 50 -5.1 22.8
12:20 1001 29.56 830 24.51 4.5 40.1 51 -4.9 23.2
12:25 1001 29.56 830 24.51 4.6 40.3 52 -4.5 23.9
12:30 1001 29.56 830 24.51 4.8 40.6 50 -4.7 23.5
12:35 1001 29.56 830 24.51 5.7 42.2 47 -4.8 23.4
12:40 1001 29.56 830 24.51 5.9 42.7 50 -3.8 25.2
12:45 1001 29.56 830 24.51 5.4 41.7 50 -4.3 24.2
12:50 1001 29.56 830 24.51 5.4 41.7 52 -3.7 25.3
12:55 1001 29.56 830 24.51 5.3 41.6 51 -3.9 25
13:00 1001 29.56 830 24.51 4.6 40.2 55 -3.7 25.4
13:05 1001 29.56 830 24.51 3.8 38.8 56 -4.3 24.3
13:10 1001 29.56 830 24.51 4.1 39.4 54 -4.4 24.1
13:15 1001 29.56 830 24.51 4.4 39.9 54 -4.1 24.6
13:20 1001 29.56 830 24.51 4.9 40.8 53 -3.8 25.2
13:25 1001 29.56 830 24.51 5.2 41.3 53 -3.6 25.6
13:30 1001 29.56 830 24.51 5.4 41.7 52 -3.7 25.4
13:35 1001 29.56 830 24.51 5.6 42 51 -3.7 25.4
13:40 1001 29.56 830 24.51 5.8 42.5 50 -3.7 25.3
13:45 1001 29.56 830 24.51 6 42.7 50 -3.7 25.4
13:50 1001 29.56 830 24.51 5.8 42.4 50 -3.8 25.2
13:55 1001 29.56 830 24.51 5.7 42.2 50 -4.1 24.7
14:00 1001 29.56 830 24.51 5.9 42.5 51 -3.5 25.6
14:05 1001 29.56 830 24.51 5.9 42.6 52 -3.3 26.1
14:10 1001 29.56 830 24.51 5.6 42.1 52 -3.4 25.9
14:15 1001 29.56 830 24.51 5.1 41.1 55 -3.3 26
14:20 1001 29.56 830 24.51 4.7 40.4 56 -3.5 25.7
14:25 1001 29.56 830 24.51 4.3 39.8 57 -3.4 25.9
14:30 1001 29.56 830 24.51 4.1 39.3 58 -3.4 25.9
14:35 1001 29.56 830 24.51 4.3 39.7 58 -3.3 26.1
14:40 1001 29.56 830 24.51 4.5 40 59 -2.9 26.7
14:45 1001 29.56 830 24.51 4.5 40.1 60 -2.6 27.2
14:50 1001 29.56 830 24.51 3.3 38 63 -3 26.6
14:55 1001 29.56 830 24.51 3.5 38.2 61 -3.3 26
15:00 1001 29.56 830 24.51 4 39.3 60 -3.1 26.5
15:05 1001 29.56 830 24.51 4.4 39.8 59 -3 26.7
15:10 1001 29.56 830 24.51 4.4 39.9 58 -3.2 26.2
15:15 1001 29.56 830 24.51 5.3 41.6 56 -2.7 27.1
15:20 1001 29.56 830 24.51 5.7 42.3 52 -3.3 26.1
15:25 1001 29.56 830 24.51 6 42.9 53 -2.8 26.9
15:30 1001 29.56 830 24.51 5.2 41.3 58 -2.3 27.9
15:35 1001 29.56 830 24.51 4.4 39.9 59 -2.9 26.8
15:40 1001 29.56 830 24.51 4.3 39.7 60 -2.8 27
15:45 1001 29.56 830 24.51 4.3 39.8 60 -2.8 26.9
15:50 1001 29.56 830 24.51 4.2 39.6 60 -2.8 26.9
15:55 1001 29.56 831 24.54 4.1 39.4 61 -2.8 26.9
16:00 1001 29.56 831 24.54 4 39.2 61 -2.8 26.9
16:05 1001 29.56 831 24.54 3.9 39.1 61 -2.9 26.7
16:10 1001 29.56 831 24.54 4.1 39.3 60 -3.1 26.5
16:15 1001 29.56 831 24.54 4.1 39.4 60 -2.9 26.7
16:20 1001 29.56 831 24.54 3.9 39 61 -3 26.5
16:25 1001 29.56 831 24.54 4.1 39.4 60 -3 26.5
16:30 1001 29.56 831 24.54 4.2 39.6 60 -2.9 26.8
16:35 1001 29.56 831 24.54 3.9 39.1 60 -3 26.6
16:40 1001 29.56 831 24.54 3.6 38.5 62 -3 26.7
16:45 1001 29.56 831 24.54 3.7 38.6 61 -3.2 26.2
16:50 1001 29.56 831 24.54 3.6 38.5 61 -3.2 26.3
16:55 1002 29.59 831 24.54 3.8 38.8 59 -3.4 25.8
17:00 1002 29.59 831 24.54 4.1 39.3 58 -3.5 25.8
17:05 1002 29.59 831 24.54 4 39.2 58 -3.6 25.5
17:10 1002 29.59 831 24.54 4.1 39.4 59 -3.1 26.4
17:15 1002 29.59 831 24.54 3.7 38.7 59 -3.6 25.6
17:20 1002 29.59 831 24.54 3.7 38.7 57 -4 24.7
17:25 1002 29.59 831 24.54 3.7 38.6 57 -4 24.7
17:30 1002 29.59 831 24.54 3.6 38.4 57 -4.3 24.3
17:35 1002 29.59 831 24.54 3.4 38.1 56 -4.7 23.6
17:40 1002 29.59 831 24.54 3.1 37.5 58 -4.4 24.2
17:45 1002 29.59 831 24.54 2.8 37 57 -4.9 23.1
17:50 1001 29.56 831 24.54 2.7 36.8 60 -4.4 24.1
17:55 1001 29.56 831 24.54 2 35.6 64 -4.2 24.5
18:00 1001 29.56 831 24.54 1.6 34.8 64 -4.5 23.8
18:05 1001 29.56 831 24.54 1.4 34.4 66 -4.4 24.1
18:10 1001 29.56 831 24.54 1.4 34.6 65 -4.5 23.9
18:15 1001 29.56 831 24.54 1.7 35.1 65 -4.2 24.4
18:20 1002 29.59 831 24.54 1.6 34.8 64 -4.6 23.7
18:25 1002 29.59 831 24.54 1.6 34.8 64 -4.5 23.8
18:30 1002 29.59 831 24.54 1.5 34.7 64 -4.6 23.7
18:35 1002 29.59 831 24.54 1.4 34.5 62 -5.1 22.8
18:40 1002 29.59 831 24.54 1.7 35 60 -5.2 22.7
18:45 1002 29.59 831 24.54 1.7 35 66 -4 24.9
18:50 1002 29.59 831 24.54 1.1 33.9 64 -5 23.1
18:55 1002 29.59 831 24.54 1.1 33.9 66 -4.7 23.6
19:00 1002 29.59 831 24.54 0.6 33.2 65 -5.2 22.7
19:05 1002 29.59 831 24.54 0.7 33.3 63 -5.5 22.1
19:10 1002 29.59 831 24.54 0.9 33.6 62 -5.6 21.8
19:15 1002 29.59 831 24.54 1.1 33.9 62 -5.5 22.1
19:20 1002 29.59 831 24.54 1.1 34 61 -5.6 21.9
19:25 1002 29.59 831 24.54 1.2 34.2 60 -5.7 21.8
19:30 1002 29.59 831 24.54 1.2 34.2 60 -5.7 21.8
19:35 1002 29.59 831 24.54 1.2 34.2 61 -5.6 22
19:40 1002 29.59 831 24.54 1.1 33.9 61 -5.7 21.7
19:45 1002 29.59 831 24.54 1 33.8 61 -5.7 21.7
19:50 1002 29.59 831 24.54 0.9 33.5 62 -5.7 21.8
19:55 1002 29.59 831 24.54 0.8 33.5 61 -5.8 21.6
20:00 1002 29.59 831 24.54 0.7 33.3 61 -6 21.3
20:05 1002 29.59 831 24.54 0.9 33.6 61 -5.8 21.5
20:10 1002 29.59 831 24.54 0.6 33.1 61 -5.9 21.3
20:15 1002 29.59 831 24.54 0.2 32.4 63 -6 21.3
20:20 1002 29.59 831 24.54 0 32.1 63 -6.1 21
20:25 1002 29.59 831 24.54 -0 31.9 63 -6.2 20.9
20:30 1002 29.59 831 24.54 0 32 63 -6.3 20.7
20:35 1002 29.59 831 24.54 0.1 32.1 62 -6.3 20.7
20:40 1002 29.59 831 24.54 0.1 32.2 62 -6.3 20.6
20:45 1002 29.59 831 24.54 0 32 62 -6.4 20.4
20:50 1002 29.59 831 24.54 -0.2 31.7 63 -6.5 20.4
20:55 1001 29.56 831 24.54 -0.2 31.6 63 -6.5 20.3
21:00 1001 29.56 831 24.54 -0.2 31.6 62 -6.7 19.9
21:05 1001 29.56 831 24.54 -0.1 31.9 61 -6.7 19.9
21:10 1001 29.56 831 24.54 -0.1 31.9 61 -6.8 19.8
21:15 1001 29.56 831 24.54 -0.2 31.7 61 -6.8 19.8
21:20 1001 29.56 831 24.54 -0.5 31.2 61 -7 19.4
21:25 1001 29.56 831 24.54 -0.7 30.7 62 -7.2 19.1
21:30 1001 29.56 831 24.54 -0.8 30.6 62 -7.2 19.1
21:35 1001 29.56 831 24.54 -0.7 30.8 62 -7.1 19.2
21:40 1001 29.56 831 24.54 -0.5 31.1 61 -7.2 19
21:45 1001 29.56 831 24.54 -0.7 30.7 62 -7.2 19.1
21:50 1002 29.59 831 24.54 -1 30.3 62 -7.3 18.8
21:55 1002 29.59 831 24.54 -1.3 29.6 63 -7.4 18.6
22:00 1002 29.59 831 24.54 -1.6 29.2 64 -7.5 18.5
22:05 1002 29.59 831 24.54 -1.5 29.3 64 -7.5 18.5
22:10 1002 29.59 831 24.54 -1.4 29.4 63 -7.5 18.5
22:15 1002 29.59 831 24.54 -1.4 29.5 63 -7.5 18.5
22:20 1002 29.59 831 24.54 -1.4 29.4 63 -7.6 18.4
22:25 1002 29.59 831 24.54 -1.5 29.4 63 -7.5 18.4
22:30 1001 29.56 831 24.54 -1.5 29.4 63 -7.5 18.4
22:35 1001 29.56 831 24.54 -1.6 29.2 63 -7.7 18.1
22:40 1001 29.56 831 24.54 -1.4 29.5 61 -7.9 17.9
22:45 1002 29.59 831 24.54 -1.2 29.9 61 -7.8 17.9
22:50 1002 29.59 831 24.54 -1.2 29.8 61 -7.8 17.9
22:55 1002 29.59 831 24.54 -1.2 29.8 60 -7.9 17.8
23:00 1002 29.59 831 24.54 -1.2 29.9 60 -8 17.7
23:05 1002 29.59 831 24.54 -1.2 29.8 60 -7.9 17.7
23:10 1002 29.59 831 24.54 -1.4 29.4 61 -8 17.6
23:15 1002 29.59 831 24.54 -1.7 28.9 62 -8.1 17.4
23:20 1002 29.59 831 24.54 -1.7 28.9 62 -8.2 17.3
23:25 1002 29.59 831 24.54 -1.8 28.7 62 -8.2 17.2
23:30 1002 29.59 831 24.54 -1.9 28.5 62 -8.2 17.2
23:35 1002 29.59 831 24.54 -1.9 28.6 62 -8.2 17.3
23:40 1002 29.59 831 24.54 -2 28.4 62 -8.2 17.2
23:45 1002 29.59 831 24.54 -2.1 28.2 62 -8.5 16.8
23:50 1002 29.59 831 24.54 -2 28.4 62 -8.4 16.8
23:55 1002 29.59 831 24.54 -1.9 28.5 60 -8.6 16.5
24:00 1002 29.59 831 24.54 -1.7 28.9 60 -8.6 16.5